Terminal Aerodrome Forecast
Issued by NWS Upton, NY

Home | Current Version | Previous Version | Text Only | Print | Product List | Glossary On
Versions: 1 2 3 4 5 6 7 8 9 10 11 12 13 14 15 16 17 18 19 20 21 22 23 24 25 26 27 28 29 30 31
000
FTUS41 KOKX 171700
TAFLGA
TAF
KLGA 171738Z 1718/1818 31008KT P6SM FEW050
     FM172000 23008KT P6SM FEW050 FEW250
     FM180000 20005KT P6SM FEW070 FEW250
     FM180600 27004KT P6SM FEW070 SCT250
     FM181200 35006KT P6SM FEW050 SCT250=

USA.gov is the U.S. government's official web portal to all federal, state and local government web resources and services.